createdAt,value
2023-01-18T00:01:21.624Z,5.68
2023-01-18T00:03:48.861Z,4.93
2023-01-18T00:06:17.736Z,4.75
2023-01-18T00:08:45.029Z,5.97
2023-01-18T00:11:16.010Z,5.95
2023-01-18T00:13:43.716Z,6.05
2023-01-18T00:16:14.202Z,5.68
2023-01-18T00:18:41.740Z,4.75
2023-01-18T00:21:11.322Z,4.38
2023-01-18T00:23:39.124Z,4.70
2023-01-18T00:26:08.825Z,4.75
2023-01-18T00:28:37.241Z,5.88
2023-01-18T00:31:19.376Z,5.65
2023-01-18T00:33:48.609Z,5.78
2023-01-18T00:36:17.206Z,5.50
2023-01-18T00:38:51.478Z,5.05
2023-01-18T00:41:19.356Z,4.82
2023-01-18T00:43:46.721Z,5.50
2023-01-18T00:46:19.819Z,5.32
2023-01-18T00:48:47.306Z,5.63
2023-01-18T00:51:17.850Z,4.53
2023-01-18T00:53:45.239Z,4.82
2023-01-18T00:56:18.847Z,5.32
2023-01-18T00:58:46.375Z,6.78
2023-01-18T01:01:14.536Z,5.32
2023-01-18T01:04:00.168Z,4.03
2023-01-18T01:06:46.222Z,4.40
2023-01-18T01:09:25.612Z,5.47
2023-01-18T01:12:12.200Z,4.78
2023-01-18T01:15:00.910Z,6.00
2023-01-18T01:17:57.051Z,4.93
2023-01-18T01:20:43.989Z,4.00
2023-01-18T01:23:40.716Z,4.43
2023-01-18T01:26:09.798Z,4.13
2023-01-18T01:28:39.522Z,4.13
2023-01-18T01:31:08.597Z,3.92
2023-01-18T01:33:36.186Z,3.35
2023-01-18T01:36:06.593Z,4.10
2023-01-18T01:38:33.926Z,4.22
2023-01-18T01:41:13.824Z,3.08
2023-01-18T01:43:43.085Z,4.97
2023-01-18T01:46:19.453Z,3.58
2023-01-18T01:48:48.402Z,4.03
2023-01-18T01:51:18.566Z,4.78
2023-01-18T01:53:48.756Z,4.95
2023-01-18T01:56:16.902Z,5.13
2023-01-18T01:58:46.085Z,4.18
2023-01-18T02:01:13.370Z,5.10
2023-01-18T02:03:42.630Z,4.72
2023-01-18T02:06:32.838Z,4.57
2023-01-18T02:09:02.021Z,5.15
2023-01-18T02:11:29.687Z,3.88
2023-01-18T02:14:01.381Z,4.03
2023-01-18T02:17:05.129Z,4.50
2023-01-18T02:19:57.176Z,5.03
2023-01-18T02:22:30.272Z,3.58
2023-01-18T02:25:27.107Z,3.33
2023-01-18T02:28:06.392Z,3.55
2023-01-18T02:31:00.777Z,3.72
2023-01-18T02:34:06.610Z,3.75
2023-01-18T02:37:18.603Z,2.85
2023-01-18T02:40:07.943Z,2.92
2023-01-18T02:42:57.427Z,2.63
2023-01-18T02:45:54.137Z,2.22
2023-01-18T02:48:23.606Z,3.15
2023-01-18T02:50:51.869Z,2.85
2023-01-18T02:53:19.109Z,2.78
2023-01-18T02:55:46.280Z,2.47
2023-01-18T02:58:28.607Z,2.50
2023-01-18T03:01:07.545Z,3.65
2023-01-18T03:03:36.057Z,2.47
2023-01-18T03:06:07.979Z,2.08
2023-01-18T03:08:38.720Z,2.97
2023-01-18T03:11:30.826Z,4.97
2023-01-18T03:14:19.929Z,3.47
2023-01-18T03:17:00.019Z,4.10
2023-01-18T03:20:05.353Z,3.03
2023-01-18T03:23:01.103Z,2.22
2023-01-18T03:25:32.744Z,2.70
2023-01-18T03:28:25.526Z,2.20
2023-01-18T03:31:14.772Z,2.58
2023-01-18T03:33:47.265Z,2.75
2023-01-18T03:36:17.263Z,3.38
2023-01-18T03:38:48.014Z,2.15
2023-01-18T03:41:17.433Z,2.25
2023-01-18T03:43:46.525Z,2.25
2023-01-18T03:46:17.703Z,2.95
2023-01-18T03:48:45.838Z,3.00
2023-01-18T03:51:26.069Z,3.97
2023-01-18T03:54:17.727Z,2.22
2023-01-18T03:57:07.915Z,2.20
2023-01-18T03:59:38.819Z,3.25
2023-01-18T04:02:07.847Z,3.00
2023-01-18T04:04:35.679Z,3.15
2023-01-18T04:07:03.290Z,2.33
2023-01-18T04:09:31.698Z,2.65
2023-01-18T04:11:58.941Z,2.03
2023-01-18T04:14:26.222Z,2.13
2023-01-18T04:16:53.558Z,2.53
2023-01-18T04:19:20.686Z,2.38
2023-01-18T04:21:48.154Z,2.08
2023-01-18T04:24:16.512Z,2.17
2023-01-18T04:26:43.704Z,2.17
2023-01-18T04:29:10.952Z,3.20
2023-01-18T04:31:38.207Z,2.42
2023-01-18T04:34:05.458Z,2.85
2023-01-18T04:36:32.611Z,2.95
2023-01-18T04:38:59.874Z,1.92
2023-01-18T04:41:27.303Z,2.17
2023-01-18T04:43:54.495Z,2.85
2023-01-18T04:46:21.703Z,1.70
2023-01-18T04:48:52.088Z,2.33
2023-01-18T04:51:19.544Z,1.60
2023-01-18T04:53:46.921Z,1.48
2023-01-18T04:56:14.092Z,1.38
2023-01-18T04:58:41.422Z,1.45
2023-01-18T05:01:12.410Z,2.13
2023-01-18T05:03:42.551Z,1.83
2023-01-18T05:06:11.801Z,1.90
2023-01-18T05:08:42.151Z,2.13
2023-01-18T05:11:17.959Z,2.17
2023-01-18T05:13:46.284Z,1.55
2023-01-18T05:16:19.206Z,1.70
2023-01-18T05:18:47.280Z,2.67
2023-01-18T05:21:15.489Z,1.92
2023-01-18T05:23:42.964Z,2.03
2023-01-18T05:26:20.033Z,1.38
2023-01-18T05:28:47.678Z,2.58
2023-01-18T05:31:16.267Z,1.50
2023-01-18T05:33:43.482Z,2.00
2023-01-18T05:36:10.633Z,2.10
2023-01-18T05:38:37.856Z,2.58
2023-01-18T05:41:05.563Z,2.53
2023-01-18T05:43:34.173Z,2.72
2023-01-18T05:46:02.216Z,2.05
2023-01-18T05:48:30.210Z,2.13
2023-01-18T05:50:57.489Z,2.05
2023-01-18T05:53:25.383Z,1.90
2023-01-18T05:56:02.963Z,2.33
2023-01-18T05:58:30.279Z,2.65
2023-01-18T06:00:57.801Z,2.20
2023-01-18T06:03:25.459Z,2.85
2023-01-18T06:05:52.839Z,2.17
2023-01-18T06:08:20.576Z,2.22
2023-01-18T06:10:55.798Z,1.77
2023-01-18T06:13:24.116Z,2.20
2023-01-18T06:15:52.011Z,1.45
2023-01-18T06:18:19.264Z,2.75
2023-01-18T06:20:46.632Z,2.25
2023-01-18T06:23:13.845Z,2.28
2023-01-18T06:25:41.050Z,2.00
2023-01-18T06:28:08.201Z,1.67
2023-01-18T06:30:35.473Z,1.77
2023-01-18T06:33:06.845Z,1.83
2023-01-18T06:35:35.129Z,2.08
2023-01-18T06:38:04.017Z,1.80
2023-01-18T06:40:31.224Z,1.55
2023-01-18T06:42:58.739Z,1.13
2023-01-18T06:45:26.540Z,1.20
2023-01-18T06:47:53.902Z,1.73
2023-01-18T06:50:22.584Z,1.38
2023-01-18T06:52:49.830Z,1.70
2023-01-18T06:55:17.065Z,1.58
2023-01-18T06:57:44.209Z,1.88
2023-01-18T07:00:12.752Z,1.80
2023-01-18T07:02:39.919Z,1.20
2023-01-18T07:05:07.328Z,1.52
2023-01-18T07:07:34.530Z,2.22
2023-01-18T07:10:01.699Z,1.60
2023-01-18T07:12:28.857Z,1.75
2023-01-18T07:14:56.074Z,2.17
2023-01-18T07:17:23.290Z,2.10
2023-01-18T07:19:50.522Z,1.33
2023-01-18T07:22:17.648Z,2.08
2023-01-18T07:24:45.685Z,1.50
2023-01-18T07:27:12.867Z,1.77
2023-01-18T07:29:40.149Z,1.48
2023-01-18T07:32:07.832Z,1.65
2023-01-18T07:34:35.034Z,1.63
2023-01-18T07:37:02.237Z,2.42
2023-01-18T07:39:29.418Z,1.55
2023-01-18T07:41:56.628Z,1.60
2023-01-18T07:44:23.989Z,1.63
2023-01-18T07:46:51.227Z,1.48
2023-01-18T07:49:18.481Z,1.38
2023-01-18T07:51:45.870Z,1.80
2023-01-18T07:54:13.267Z,2.00
2023-01-18T07:56:40.423Z,2.15
2023-01-18T07:59:07.679Z,1.58
2023-01-18T08:01:35.016Z,2.05
2023-01-18T08:04:02.325Z,1.77
2023-01-18T08:06:29.505Z,1.30
2023-01-18T08:08:57.104Z,1.85
2023-01-18T08:11:24.665Z,1.40
2023-01-18T08:13:52.920Z,1.65
2023-01-18T08:16:20.181Z,1.33
2023-01-18T08:18:50.302Z,1.90
2023-01-18T08:21:17.477Z,1.25
2023-01-18T08:23:44.800Z,2.45
2023-01-18T08:26:13.781Z,1.73
2023-01-18T08:28:41.726Z,1.85
2023-01-18T08:31:21.936Z,2.22
2023-01-18T08:33:51.052Z,2.30
2023-01-18T08:36:23.928Z,1.55
2023-01-18T08:38:52.882Z,2.25
2023-01-18T08:41:21.092Z,2.20
2023-01-18T08:43:52.484Z,2.42
2023-01-18T08:46:20.170Z,2.53
2023-01-18T08:48:55.934Z,2.65
2023-01-18T08:51:23.647Z,2.00
2023-01-18T08:53:54.625Z,2.97
2023-01-18T08:56:21.919Z,2.08
2023-01-18T08:58:49.242Z,2.95
2023-01-18T09:01:16.527Z,1.98
2023-01-18T09:03:44.954Z,2.15
2023-01-18T09:06:13.188Z,2.30
2023-01-18T09:08:40.495Z,1.98
2023-01-18T09:11:10.489Z,1.83
2023-01-18T09:13:58.589Z,2.53
2023-01-18T09:16:27.303Z,2.28
2023-01-18T09:18:56.399Z,2.45
2023-01-18T09:21:24.233Z,2.03
2023-01-18T09:23:51.400Z,1.85
2023-01-18T09:26:20.859Z,2.53
2023-01-18T09:28:52.340Z,3.97
2023-01-18T09:31:21.492Z,1.70
2023-01-18T09:33:53.541Z,3.20
2023-01-18T09:36:26.772Z,2.97
2023-01-18T09:38:54.984Z,2.72
2023-01-18T09:41:47.037Z,3.78
2023-01-18T09:44:31.924Z,3.08
2023-01-18T09:47:04.921Z,2.67
2023-01-18T09:49:55.004Z,2.95
2023-01-18T09:52:42.597Z,2.10
2023-01-18T09:55:22.474Z,2.38
2023-01-18T09:57:49.577Z,2.03
2023-01-18T10:00:24.442Z,2.97
2023-01-18T10:03:01.034Z,1.77
2023-01-18T10:05:34.782Z,2.15
2023-01-18T10:08:20.980Z,2.07
2023-01-18T10:11:04.468Z,2.60
2023-01-18T10:13:57.185Z,2.90
2023-01-18T10:16:25.436Z,1.70
2023-01-18T10:18:55.730Z,1.77
2023-01-18T10:21:22.825Z,2.05
2023-01-18T10:23:58.509Z,2.63
2023-01-18T10:26:30.742Z,3.33
2023-01-18T10:29:25.192Z,2.13
2023-01-18T10:32:02.955Z,2.47
2023-01-18T10:34:35.633Z,1.55
2023-01-18T10:37:17.269Z,2.00
2023-01-18T10:39:50.243Z,1.88
2023-01-18T10:42:37.396Z,3.42
2023-01-18T10:45:23.154Z,1.90
2023-01-18T10:47:52.819Z,2.28
2023-01-18T10:50:24.700Z,2.80
2023-01-18T10:52:51.872Z,2.55
2023-01-18T10:55:20.441Z,2.80
2023-01-18T10:57:50.017Z,2.38
2023-01-18T11:00:33.722Z,2.15
2023-01-18T11:03:03.658Z,2.97
2023-01-18T11:05:40.323Z,3.53
2023-01-18T11:08:24.264Z,3.80
2023-01-18T11:11:19.229Z,3.38
2023-01-18T11:13:49.179Z,3.28
2023-01-18T11:16:23.853Z,3.45
2023-01-18T11:19:16.324Z,2.60
2023-01-18T11:21:51.570Z,2.92
2023-01-18T11:24:25.079Z,3.70
2023-01-18T11:26:59.314Z,3.00
2023-01-18T11:29:34.598Z,3.95
2023-01-18T11:32:08.502Z,3.85
2023-01-18T11:34:38.823Z,2.47
2023-01-18T11:37:31.098Z,2.95
2023-01-18T11:39:58.437Z,2.90
2023-01-18T11:42:35.129Z,3.35
2023-01-18T11:45:25.530Z,3.35
2023-01-18T11:47:55.421Z,2.25
2023-01-18T11:50:40.156Z,2.60
2023-01-18T11:53:21.057Z,2.67
2023-01-18T11:56:13.084Z,2.28
2023-01-18T11:58:40.878Z,1.90
2023-01-18T12:01:28.512Z,1.85
2023-01-18T12:03:59.384Z,1.58
2023-01-18T12:06:29.366Z,1.40
2023-01-18T12:09:15.204Z,1.52
2023-01-18T12:12:01.384Z,1.20
2023-01-18T12:14:50.743Z,1.55
2023-01-18T12:17:46.278Z,1.48
2023-01-18T12:20:23.133Z,1.27
2023-01-18T12:23:19.118Z,3.90
2023-01-18T12:25:49.098Z,1.55
2023-01-18T12:28:33.075Z,1.10
2023-01-18T12:31:42.619Z,1.20
2023-01-18T12:34:14.852Z,2.95
2023-01-18T12:36:49.228Z,1.45
2023-01-18T12:42:05.458Z,1.55
2023-01-18T12:44:48.448Z,1.15
2023-01-18T12:47:35.298Z,1.48
2023-01-18T12:50:08.305Z,1.50
2023-01-18T12:52:42.655Z,1.30
2023-01-18T12:57:46.539Z,1.25
2023-01-18T13:00:23.339Z,1.40
2023-01-18T13:02:55.918Z,1.48
2023-01-18T13:05:34.916Z,1.40
2023-01-18T13:08:27.714Z,1.33
2023-01-18T13:11:01.900Z,1.20
2023-01-18T13:13:30.238Z,1.20
2023-01-18T13:16:10.934Z,1.77
2023-01-18T13:18:49.554Z,1.48
2023-01-18T13:21:26.889Z,1.30
2023-01-18T13:24:11.795Z,1.15
2023-01-18T13:26:40.246Z,1.10
2023-01-18T13:29:10.433Z,0.98
2023-01-18T13:31:38.269Z,1.05
2023-01-18T13:34:08.173Z,1.23
2023-01-18T13:36:45.040Z,1.05
2023-01-18T13:39:19.147Z,1.20
2023-01-18T13:42:04.731Z,1.20
2023-01-18T13:44:46.094Z,1.00
2023-01-18T13:47:47.266Z,0.85
2023-01-18T13:50:32.598Z,0.80
2023-01-18T13:53:15.093Z,0.95
2023-01-18T13:55:47.069Z,0.70
2023-01-18T13:58:30.598Z,1.10
2023-01-18T14:01:03.607Z,1.35
2023-01-18T14:03:37.898Z,0.77
2023-01-18T14:06:15.149Z,0.73
2023-01-18T14:08:54.763Z,0.80
2023-01-18T14:11:45.842Z,0.88
2023-01-18T14:14:16.151Z,0.70
2023-01-18T14:17:18.278Z,0.95
2023-01-18T14:19:48.485Z,0.60
2023-01-18T14:22:40.751Z,0.52
2023-01-18T14:25:45.360Z,1.25
2023-01-18T14:28:17.747Z,0.60
2023-01-18T14:30:47.470Z,0.70
2023-01-18T14:33:27.084Z,0.70
2023-01-18T14:35:58.365Z,1.65
2023-01-18T14:38:26.555Z,0.70
2023-01-18T14:40:57.744Z,0.60
2023-01-18T14:43:30.812Z,0.60
2023-01-18T14:46:19.122Z,0.70
2023-01-18T14:48:53.220Z,0.70
2023-01-18T14:51:23.126Z,0.68
2023-01-18T14:53:57.884Z,0.80
2023-01-18T14:56:30.346Z,0.60
2023-01-18T14:59:22.826Z,0.93
2023-01-18T15:02:01.109Z,1.00
2023-01-18T15:04:34.870Z,0.55
2023-01-18T15:07:13.731Z,0.90
2023-01-18T15:09:44.547Z,0.82
2023-01-18T15:12:21.431Z,0.82
2023-01-18T15:14:49.856Z,0.52
2023-01-18T15:17:26.197Z,0.57
2023-01-18T15:19:57.913Z,0.77
2023-01-18T15:22:30.880Z,1.00
2023-01-18T15:24:59.922Z,0.65
2023-01-18T15:27:32.385Z,0.60
2023-01-18T15:30:01.521Z,0.75
2023-01-18T15:32:36.120Z,0.68
2023-01-18T15:35:03.783Z,1.45
2023-01-18T15:37:39.454Z,1.48
2023-01-18T15:40:12.659Z,0.77
2023-01-18T15:42:42.955Z,1.00
2023-01-18T15:45:19.716Z,1.63
2023-01-18T15:47:50.273Z,0.80
2023-01-18T15:50:43.421Z,0.90
2023-01-18T15:53:35.061Z,0.90
2023-01-18T15:56:30.942Z,0.80
2023-01-18T15:59:00.922Z,0.90
2023-01-18T16:01:36.020Z,0.90
2023-01-18T16:04:09.337Z,0.88
2023-01-18T16:06:40.285Z,1.10
2023-01-18T16:09:12.746Z,0.80
2023-01-18T16:11:57.439Z,1.00
2023-01-18T16:14:35.885Z,0.80
2023-01-18T16:17:13.102Z,0.80
2023-01-18T16:19:55.051Z,1.00
2023-01-18T16:22:26.401Z,0.70
2023-01-18T16:25:06.581Z,1.23
2023-01-18T16:27:34.458Z,0.93
2023-01-18T16:30:18.039Z,0.80
2023-01-18T16:32:45.249Z,0.80
2023-01-18T16:35:18.182Z,0.65
2023-01-18T16:37:45.545Z,1.20
2023-01-18T16:40:23.752Z,1.00
2023-01-18T16:42:57.045Z,1.88
2023-01-18T16:45:24.463Z,0.95
2023-01-18T16:47:51.659Z,1.27
2023-01-18T16:50:19.560Z,1.08
2023-01-18T16:52:46.743Z,1.02
2023-01-18T16:55:15.431Z,0.82
2023-01-18T16:57:43.366Z,0.70
2023-01-18T17:00:23.137Z,1.60
2023-01-18T17:02:50.731Z,1.65
2023-01-18T17:05:18.574Z,1.55
2023-01-18T17:07:46.017Z,1.08
2023-01-18T17:10:31.305Z,1.65
2023-01-18T17:13:00.227Z,1.33
2023-01-18T17:15:30.041Z,2.90
2023-01-18T17:17:57.270Z,1.23
2023-01-18T17:20:26.723Z,1.42
2023-01-18T17:22:55.690Z,1.40
2023-01-18T17:25:24.438Z,2.00
2023-01-18T17:27:52.317Z,1.65
2023-01-18T17:30:21.992Z,1.20
2023-01-18T17:32:49.979Z,1.13
2023-01-18T17:35:21.981Z,0.88
2023-01-18T17:37:54.451Z,1.67
2023-01-18T17:40:39.324Z,1.88
2023-01-18T17:43:33.034Z,2.55
2023-01-18T17:46:05.861Z,2.28
2023-01-18T17:48:33.498Z,1.98
2023-01-18T17:51:00.739Z,1.20
2023-01-18T17:53:27.954Z,1.25
2023-01-18T17:55:55.185Z,1.52
2023-01-18T17:58:22.657Z,1.95
2023-01-18T18:00:50.214Z,1.60
2023-01-18T18:03:17.705Z,2.00
2023-01-18T18:05:45.381Z,2.10
2023-01-18T18:08:12.580Z,2.42
2023-01-18T18:10:43.366Z,1.40
2023-01-18T18:13:10.542Z,2.92
2023-01-18T18:15:37.758Z,3.22
2023-01-18T18:18:07.346Z,2.65
2023-01-18T18:20:34.659Z,1.83
2023-01-18T18:23:02.219Z,2.42
2023-01-18T18:25:29.649Z,4.13
2023-01-18T18:27:56.851Z,3.00
2023-01-18T18:30:24.044Z,2.95
2023-01-18T18:32:51.211Z,3.72
2023-01-18T18:35:25.506Z,3.40
2023-01-18T18:37:54.211Z,2.78
2023-01-18T18:40:23.054Z,2.88
2023-01-18T18:43:01.230Z,3.30
2023-01-18T18:45:31.681Z,2.83
2023-01-18T18:47:58.940Z,2.22
2023-01-18T18:50:26.357Z,4.13
2023-01-18T18:52:53.823Z,3.92
2023-01-18T18:55:21.480Z,4.15
2023-01-18T18:57:48.653Z,4.05
2023-01-18T19:00:16.308Z,3.28
2023-01-18T19:02:43.572Z,5.05
2023-01-18T19:05:11.076Z,3.83
2023-01-18T19:07:38.321Z,3.40
2023-01-18T19:10:07.288Z,2.47
2023-01-18T19:12:34.623Z,2.67
2023-01-18T19:15:01.899Z,3.15
2023-01-18T19:17:31.035Z,3.40
2023-01-18T19:19:59.011Z,2.75
2023-01-18T19:22:26.369Z,4.82
2023-01-18T19:24:53.594Z,3.00
2023-01-18T19:27:24.666Z,2.58
2023-01-18T19:29:53.424Z,2.63
2023-01-18T19:32:20.859Z,3.00
2023-01-18T19:34:48.123Z,4.47
2023-01-18T19:37:15.401Z,5.68
2023-01-18T19:39:42.717Z,3.35
2023-01-18T19:42:09.989Z,3.30
2023-01-18T19:44:37.183Z,3.22
2023-01-18T19:47:04.430Z,2.83
2023-01-18T19:49:31.650Z,2.90
2023-01-18T19:51:58.850Z,2.30
2023-01-18T19:54:26.016Z,1.70
2023-01-18T19:56:53.240Z,3.22
2023-01-18T19:59:20.480Z,2.53
2023-01-18T20:01:47.813Z,2.47
2023-01-18T20:04:15.198Z,2.72
2023-01-18T20:06:45.052Z,2.70
2023-01-18T20:09:27.089Z,3.15
2023-01-18T20:12:01.623Z,3.28
2023-01-18T20:14:40.400Z,2.05
2023-01-18T20:17:11.523Z,2.17
2023-01-18T20:19:38.886Z,2.60
2023-01-18T20:22:07.137Z,2.00
2023-01-18T20:24:34.432Z,3.05
2023-01-18T20:27:15.452Z,2.97
2023-01-18T20:29:44.602Z,3.17
2023-01-18T20:32:16.738Z,3.33
2023-01-18T20:34:47.021Z,3.05
2023-01-18T20:37:15.605Z,3.25
2023-01-18T20:39:43.025Z,3.60
2023-01-18T20:42:10.397Z,3.53
2023-01-18T20:44:37.824Z,2.42
2023-01-18T20:47:05.260Z,4.05
2023-01-18T20:49:38.357Z,3.88
2023-01-18T20:52:07.364Z,3.77
2023-01-18T20:54:36.576Z,2.63
2023-01-18T20:57:07.189Z,3.72
2023-01-18T20:59:34.499Z,4.22
2023-01-18T21:02:03.139Z,2.80
2023-01-18T21:04:30.621Z,3.60
2023-01-18T21:06:58.027Z,3.45
2023-01-18T21:09:26.112Z,2.80
2023-01-18T21:11:53.506Z,3.22
2023-01-18T21:14:20.815Z,3.25
2023-01-18T21:16:48.351Z,2.40
2023-01-18T21:19:15.737Z,2.45
2023-01-18T21:21:43.104Z,2.40
2023-01-18T21:24:10.720Z,2.45
2023-01-18T21:26:38.012Z,2.95
2023-01-18T21:29:05.937Z,3.03
2023-01-18T21:31:33.322Z,3.72
2023-01-18T21:34:00.506Z,2.72
2023-01-18T21:36:27.731Z,3.22
2023-01-18T21:38:55.406Z,2.92
2023-01-18T21:41:41.965Z,2.72
2023-01-18T21:44:30.842Z,2.80
2023-01-18T21:46:59.068Z,4.63
2023-01-18T21:50:15.381Z,3.47
2023-01-18T21:52:50.892Z,3.92
2023-01-18T21:55:19.426Z,3.35
2023-01-18T21:58:06.981Z,3.63
2023-01-18T22:00:40.468Z,2.63
2023-01-18T22:03:09.782Z,3.55
2023-01-18T22:05:38.732Z,3.47
2023-01-18T22:08:09.847Z,3.88
2023-01-18T22:10:37.147Z,3.03
2023-01-18T22:13:04.587Z,3.05
2023-01-18T22:15:32.138Z,2.95
2023-01-18T22:18:00.062Z,3.92
2023-01-18T22:20:29.236Z,4.07
2023-01-18T22:22:57.660Z,3.13
2023-01-18T22:25:25.238Z,3.63
2023-01-18T22:27:52.603Z,2.88
2023-01-18T22:30:20.256Z,2.70
2023-01-18T22:32:47.991Z,3.25
2023-01-18T22:35:15.839Z,3.70
2023-01-18T22:37:43.375Z,3.15
2023-01-18T22:40:11.660Z,3.30
2023-01-18T22:42:39.087Z,3.13
2023-01-18T22:45:07.152Z,3.72
2023-01-18T22:47:34.628Z,3.92
2023-01-18T22:50:01.865Z,4.60
2023-01-18T22:52:29.126Z,3.47
2023-01-18T22:54:56.548Z,3.42
2023-01-18T22:57:23.792Z,3.10
2023-01-18T22:59:51.068Z,2.90
2023-01-18T23:02:18.353Z,3.15
2023-01-18T23:04:45.644Z,3.03
2023-01-18T23:07:14.258Z,2.22
2023-01-18T23:09:41.810Z,3.08
2023-01-18T23:12:09.918Z,3.58
2023-01-18T23:14:56.027Z,3.72
2023-01-18T23:17:42.352Z,3.03
2023-01-18T23:20:12.138Z,3.58
2023-01-18T23:22:39.337Z,3.13
2023-01-18T23:25:06.955Z,3.00
2023-01-18T23:27:34.168Z,2.53
2023-01-18T23:30:02.627Z,3.20
2023-01-18T23:32:32.522Z,1.77
2023-01-18T23:35:00.420Z,4.13
2023-01-18T23:37:27.931Z,1.98
2023-01-18T23:40:13.776Z,2.60
2023-01-18T23:42:59.592Z,3.20
2023-01-18T23:45:45.343Z,2.35
2023-01-18T23:48:37.901Z,2.85
2023-01-18T23:51:25.002Z,2.33
2023-01-18T23:54:12.401Z,2.47
2023-01-18T23:56:39.627Z,2.80
2023-01-18T23:59:06.866Z,2.35
